| time (UTC) | temp C | wind direction | speed KPH | gust KPH | rain 1hr cm | rain 24hr cm | rain mn cm | humidity % | barometer mb |
| 20260506233759 | 30 | 159 | 8.0 | 19.3 | 0.00 | 0.00 | 0.00 | 17 | 1013.8 |
| 20260506233411 | 30 | 105 | 11.3 | 19.3 | 0.00 | 0.00 | 0.00 | 17 | 1013.8 |
| 20260506232910 | 30 | 60 | 9.7 | 19.3 | 0.00 | 0.00 | 0.00 | 17 | 1014.1 |
| 20260506232410 | 30 | 165 | 6.4 | 14.5 | 0.00 | 0.00 | 0.00 | 17 | 1014.2 |
| 20260506231757 | 30 | 96 | 6.4 | 17.7 | 0.00 | 0.00 | 0.00 | 17 | 1014.2 |
| 20260506230758 | 30 | 74 | 9.7 | 19.3 | 0.00 | 0.00 | 0.00 | 17 | 1014.2 |
| 20260506230300 | 30 | 118 | 12.9 | 22.5 | 0.00 | 0.00 | 0.00 | 17 | 1014.3 |
| 20260506230255 | 30 | 168 | 12.9 | 20.9 | 0.00 | 0.00 | 0.00 | 17 | 1014.2 |
| 20260506225256 | 30 | 103 | 9.7 | 22.5 | 0.00 | 0.00 | 0.00 | 17 | 1014.3 |
| 20260506224757 | 30 | 134 | 6.4 | 17.7 | 0.00 | 0.00 | 0.00 | 17 | 1014.3 |
| 20260506224259 | 30 | 169 | 9.7 | 24.1 | 0.00 | 0.00 | 0.00 | 18 | 1014.5 |
| 20260506224255 | 30 | 87 | 9.7 | 17.7 | 0.00 | 0.00 | 0.00 | 17 | 1014.4 |
| 20260506223253 | 30 | 121 | 11.3 | 24.1 | 0.00 | 0.00 | 0.00 | 17 | 1014.5 |
| 20260506222755 | 29 | 120 | 11.3 | 24.1 | 0.00 | 0.00 | 0.00 | 18 | 1014.6 |
| 20260506222254 | 30 | 64 | 9.7 | 24.1 | 0.00 | 0.00 | 0.00 | 17 | 1014.7 |
| 20260506222249 | 29 | 34 | 8.0 | 19.3 | 0.00 | 0.00 | 0.00 | 17 | 1014.7 |
| 20260506221250 | 29 | 112 | 9.7 | 22.5 | 0.00 | 0.00 | 0.00 | 18 | 1014.7 |
| 20260506220749 | 29 | 130 | 12.9 | 22.5 | 0.00 | 0.00 | 0.00 | 18 | 1014.9 |
| 20260506220249 | 29 | 124 | 12.9 | 22.5 | 0.00 | 0.00 | 0.00 | 18 | 1014.9 |
| 20260506215750 | 29 | 57 | 9.7 | 20.9 | 0.00 | 0.00 | 0.00 | 18 | 1014.8 |
| 20260506215250 | 29 | 42 | 11.3 | 20.9 | 0.00 | 0.00 | 0.00 | 18 | 1014.9 |
| 20260506214749 | 29 | 36 | 12.9 | 20.9 | 0.00 | 0.00 | 0.00 | 18 | 1015.0 |
| 20260506214250 | 29 | 66 | 11.3 | 27.4 | 0.00 | 0.00 | 0.00 | 18 | 1015.0 |
| 20260506213749 | 29 | 93 | 11.3 | 27.4 | 0.00 | 0.00 | 0.00 | 18 | 1015.0 |
| 20260506213255 | 28 | 128 | 12.9 | 27.4 | 0.00 | 0.00 | 0.00 | 18 | 1015.1 |
| 20260506213250 | 29 | 52 | 12.9 | 27.4 | 0.00 | 0.00 | 0.00 | 18 | 1015.1 |
| 20260506212251 | 28 | 61 | 14.5 | 27.4 | 0.00 | 0.00 | 0.00 | 19 | 1015.1 |
| 20260506211749 | 28 | 64 | 12.9 | 22.5 | 0.00 | 0.00 | 0.00 | 19 | 1015.1 |
| 20260506211249 | 28 | 67 | 11.3 | 22.5 | 0.00 | 0.00 | 0.00 | 19 | 1015.2 |
| 20260506210747 | 28 | 57 | 12.9 | 22.5 | 0.00 | 0.00 | 0.00 | 19 | 1015.2 |
| 20260506210248 | 28 | 111 | 14.5 | 29.0 | 0.00 | 0.00 | 0.00 | 19 | 1015.2 |
| 20260506205747 | 28 | 54 | 14.5 | 29.0 | 0.00 | 0.00 | 0.00 | 19 | 1015.2 |
| 20260506205245 | 28 | 80 | 14.5 | 29.0 | 0.00 | 0.00 | 0.00 | 19 | 1015.2 |
| 20260506204745 | 28 | 69 | 14.5 | 29.0 | 0.00 | 0.00 | 0.00 | 20 | 1015.3 |
| 20260506204250 | 28 | 67 | 12.9 | 25.7 | 0.00 | 0.00 | 0.00 | 20 | 1015.3 |
| 20260506204246 | 28 | 65 | 14.5 | 25.7 | 0.00 | 0.00 | 0.00 | 20 | 1015.3 |
| 20260506203245 | 28 | 109 | 9.7 | 20.9 | 0.00 | 0.00 | 0.00 | 20 | 1015.3 |
| 20260506202745 | 28 | 63 | 11.3 | 20.9 | 0.00 | 0.00 | 0.00 | 21 | 1015.5 |
| 20260506202243 | 28 | 64 | 12.9 | 20.9 | 0.00 | 0.00 | 0.00 | 20 | 1015.5 |
| 20260506201744 | 28 | 353 | 11.3 | 20.9 | 0.00 | 0.00 | 0.00 | 21 | 1015.6 |
| 20260506201243 | 28 | 49 | 6.4 | 17.7 | 0.00 | 0.00 | 0.00 | 22 | 1015.7 |
| 20260506200744 | 28 | 13 | 4.8 | 17.7 | 0.00 | 0.00 | 0.00 | 22 | 1015.7 |
| 20260506200243 | 28 | 144 | 6.4 | 17.7 | 0.00 | 0.00 | 0.00 | 22 | 1015.7 |
| 20260506195743 | 27 | 124 | 9.7 | 20.9 | 0.00 | 0.00 | 0.00 | 22 | 1015.8 |
| 20260506195243 | 27 | 116 | 9.7 | 20.9 | 0.00 | 0.00 | 0.00 | 22 | 1015.9 |
| 20260506194749 | 27 | 117 | 6.4 | 16.1 | 0.00 | 0.00 | 0.00 | 24 | 1016.1 |
| 20260506194744 | 27 | 96 | 6.4 | 16.1 | 0.00 | 0.00 | 0.00 | 23 | 1015.9 |
| 20260506193743 | 26 | 44 | 6.4 | 14.5 | 0.00 | 0.00 | 0.00 | 24 | 1016.2 |
| 20260506193243 | 26 | 94 | 6.4 | 14.5 | 0.00 | 0.00 | 0.00 | 24 | 1016.2 |
| 20260506192743 | 26 | 101 | 4.8 | 12.9 | 0.00 | 0.00 | 0.00 | 25 | 1016.2 |
| 20260506192249 | 26 | 107 | 6.4 | 12.9 | 0.00 | 0.00 | 0.00 | 25 | 1016.4 |
| 20260506192243 | 26 | 140 | 6.4 | 12.9 | 0.00 | 0.00 | 0.00 | 25 | 1016.4 |
| 20260506191243 | 26 | 15 | 6.4 | 14.5 | 0.00 | 0.00 | 0.00 | 25 | 1016.5 |
| 20260506190743 | 26 | 82 | 8.0 | 16.1 | 0.00 | 0.00 | 0.00 | 26 | 1016.5 |
| 20260506190243 | 25 | 55 | 6.4 | 16.1 | 0.00 | 0.00 | 0.00 | 26 | 1016.5 |
| 20260506185742 | 25 | 44 | 6.4 | 12.9 | 0.00 | 0.00 | 0.00 | 26 | 1016.5 |
| 20260506185242 | 25 | 78 | 6.4 | 12.9 | 0.00 | 0.00 | 0.00 | 26 | 1016.5 |
| 20260506184743 | 25 | 65 | 4.8 | 12.9 | 0.00 | 0.00 | 0.00 | 27 | 1016.7 |
| 20260506184248 | 25 | 39 | 3.2 | 14.5 | 0.00 | 0.00 | 0.00 | 27 | 1016.8 |
| 20260506184243 | 25 | 3 | 4.8 | 14.5 | 0.00 | 0.00 | 0.00 | 27 | 1016.7 |
| 20260506183243 | 25 | 329 | 3.2 | 14.5 | 0.00 | 0.00 | 0.00 | 27 | 1017.0 |
| 20260506182743 | 24 | 348 | 6.4 | 14.5 | 0.00 | 0.00 | 0.00 | 28 | 1017.1 |
| 20260506182244 | 24 | 353 | 6.4 | 14.5 | 0.00 | 0.00 | 0.00 | 28 | 1017.1 |
| 20260506181742 | 24 | 86 | 3.2 | 9.7 | 0.00 | 0.00 | 0.00 | 28 | 1017.1 |
| 20260506181243 | 24 | 194 | 4.8 | 9.7 | 0.00 | 0.00 | 0.00 | 28 | 1017.1 |
| 20260506180744 | 24 | 38 | 4.8 | 14.5 | 0.00 | 0.00 | 0.00 | 28 | 1017.2 |
| 20260506180243 | 23 | 3 | 4.8 | 14.5 | 0.00 | 0.00 | 0.00 | 29 | 1017.2 |
| 20260506175745 | 23 | 3 | 6.4 | 14.5 | 0.00 | 0.00 | 0.00 | 30 | 1017.3 |
| 20260506175741 | 23 | 348 | 6.4 | 14.5 | 0.00 | 0.00 | 0.00 | 30 | 1017.2 |
| 20260506175358 | 22 | 61 | 4.8 | 14.5 | 0.00 | 0.00 | 0.00 | 30 | 1017.2 |
| 20260506175354 | 22 | 340 | 4.8 | 14.5 | 0.00 | 0.00 | 0.00 | 30 | 1017.3 |
| 20260506174354 | 22 | 80 | 4.8 | 11.3 | 0.00 | 0.00 | 0.00 | 30 | 1017.2 |
| 20260506173246 | 23 | 36 | 3.2 | 9.7 | 0.00 | 0.00 | 0.00 | 30 | 1017.3 |
| 20260506173242 | 22 | 49 | 6.4 | 11.3 | 0.00 | 0.00 | 0.00 | 30 | 1017.3 |
| 20260506172241 | 23 | 29 | 4.8 | 11.3 | 0.00 | 0.00 | 0.00 | 30 | 1017.2 |
| 20260506171741 | 23 | 51 | 4.8 | 11.3 | 0.00 | 0.00 | 0.00 | 30 | 1017.3 |
| 20260506171241 | 22 | 353 | 3.2 | 11.3 | 0.00 | 0.00 | 0.00 | 30 | 1017.2 |
| 20260506170741 | 22 | 299 | 3.2 | 8.0 | 0.00 | 0.00 | 0.00 | 31 | 1017.2 |
| 20260506170241 | 22 | 301 | 3.2 | 8.0 | 0.00 | 0.00 | 0.00 | 31 | 1017.3 |
| 20260506165742 | 22 | 300 | 4.8 | 9.7 | 0.00 | 0.00 | 0.00 | 31 | 1017.3 |
| 20260506165241 | 22 | 7 | 4.8 | 9.7 | 0.00 | 0.00 | 0.00 | 31 | 1017.3 |
| 20260506164740 | 22 | 3 | 1.6 | 9.7 | 0.00 | 0.00 | 0.00 | 31 | 1017.3 |
| 20260506164240 | 22 | 348 | 1.6 | 8.0 | 0.00 | 0.00 | 0.00 | 32 | 1017.3 |
| 20260506163739 | 22 | 284 | 4.8 | 12.9 | 0.00 | 0.00 | 0.00 | 32 | 1017.3 |
| 20260506163239 | 21 | 256 | 3.2 | 12.9 | 0.00 | 0.00 | 0.00 | 34 | 1017.3 |
| 20260506162738 | 21 | 249 | 1.6 | 6.4 | 0.00 | 0.00 | 0.00 | 34 | 1017.3 |
| 20260506162243 | 20 | 292 | 4.8 | 11.3 | 0.00 | 0.00 | 0.00 | 35 | 1017.4 |
| 20260506162238 | 21 | 177 | 3.2 | 11.3 | 0.00 | 0.00 | 0.00 | 34 | 1017.4 |
| 20260506161851 | 20 | 257 | 4.8 | 11.3 | 0.00 | 0.00 | 0.00 | 35 | 1017.3 |
| 20260506161351 | 20 | 308 | 4.8 | 11.3 | 0.00 | 0.00 | 0.00 | 36 | 1017.4 |
| 20260506160239 | 20 | 278 | 4.8 | 11.3 | 0.00 | 0.00 | 0.00 | 37 | 1017.4 |
| 20260506155739 | 19 | 283 | 6.4 | 11.3 | 0.00 | 0.00 | 0.00 | 37 | 1017.4 |
| 20260506155239 | 19 | 205 | 6.4 | 16.1 | 0.00 | 0.00 | 0.00 | 38 | 1017.3 |
| 20260506154738 | 19 | 254 | 6.4 | 16.1 | 0.00 | 0.00 | 0.00 | 39 | 1017.3 |
| 20260506154240 | 18 | 282 | 9.7 | 16.1 | 0.00 | 0.00 | 0.00 | 40 | 1017.3 |
| 20260506153739 | 18 | 260 | 8.0 | 16.1 | 0.00 | 0.00 | 0.00 | 40 | 1017.3 |
| 20260506153238 | 18 | 240 | 6.4 | 12.9 | 0.00 | 0.00 | 0.00 | 41 | 1017.3 |
| 20260506152738 | 18 | 258 | 6.4 | 11.3 | 0.00 | 0.00 | 0.00 | 42 | 1017.3 |
| 20260506152238 | 17 | 274 | 6.4 | 16.1 | 0.00 | 0.00 | 0.00 | 43 | 1017.3 |
| 20260506151739 | 17 | 228 | 4.8 | 16.1 | 0.00 | 0.00 | 0.00 | 44 | 1017.3 |
| 20260506151236 | 17 | 262 | 6.4 | 12.9 | 0.00 | 0.00 | 0.00 | 44 | 1017.2 |
| 20260506150738 | 16 | 288 | 8.0 | 14.5 | 0.00 | 0.00 | 0.00 | 45 | 1017.2 |
| 20260506150238 | 16 | 225 | 8.0 | 14.5 | 0.00 | 0.00 | 0.00 | 46 | 1017.2 |
| 20260506150234 | 16 | 223 | 6.4 | 14.5 | 0.00 | 0.00 | 0.00 | 47 | 1017.2 |
| 20260506145236 | 15 | 238 | 6.4 | 14.5 | 0.00 | 0.00 | 0.00 | 47 | 1017.2 |
| 20260506144734 | 15 | 268 | 6.4 | 14.5 | 0.00 | 0.00 | 0.00 | 48 | 1017.1 |
| 20260506144234 | 15 | 238 | 8.0 | 14.5 | 0.00 | 0.00 | 0.00 | 49 | 1017.2 |
| 20260506143735 | 15 | 240 | 8.0 | 14.5 | 0.00 | 0.00 | 0.00 | 49 | 1017.2 |
| 20260506143235 | 15 | 257 | 6.4 | 14.5 | 0.00 | 0.00 | 0.00 | 49 | 1017.1 |
| 20260506142735 | 14 | 246 | 6.4 | 14.5 | 0.00 | 0.00 | 0.00 | 51 | 1017.0 |
| 20260506142234 | 14 | 257 | 6.4 | 14.5 | 0.00 | 0.00 | 0.00 | 52 | 1017.0 |
| 20260506141734 | 13 | 248 | 6.4 | 16.1 | 0.00 | 0.00 | 0.00 | 52 | 1016.8 |
| 20260506141238 | 13 | 218 | 11.3 | 16.1 | 0.00 | 0.00 | 0.00 | 54 | 1016.6 |
| 20260506141233 | 13 | 225 | 9.7 | 16.1 | 0.00 | 0.00 | 0.00 | 53 | 1016.7 |
| 20260506140232 | 13 | 176 | 9.7 | 16.1 | 0.00 | 0.00 | 0.00 | 55 | 1016.6 |
| 20260506135732 | 13 | 230 | 9.7 | 17.7 | 0.00 | 0.00 | 0.00 | 56 | 1016.5 |
| 20260506135232 | 12 | 226 | 11.3 | 17.7 | 0.00 | 0.00 | 0.00 | 56 | 1016.5 |
| 20260506134733 | 12 | 243 | 9.7 | 27.4 | 0.00 | 0.00 | 0.00 | 56 | 1016.5 |
| 20260506134234 | 12 | 254 | 12.9 | 27.4 | 0.00 | 0.00 | 0.00 | 56 | 1016.3 |
| 20260506133733 | 12 | 265 | 17.7 | 27.4 | 0.00 | 0.00 | 0.00 | 56 | 1016.3 |
| 20260506133238 | 11 | 222 | 12.9 | 25.7 | 0.00 | 0.00 | 0.00 | 57 | 1015.9 |
| 20260506133232 | 12 | 235 | 16.1 | 27.4 | 0.00 | 0.00 | 0.00 | 56 | 1016.0 |
| 20260506132231 | 11 | 244 | 11.3 | 20.9 | 0.00 | 0.00 | 0.00 | 57 | 1015.9 |
| 20260506131730 | 11 | 275 | 12.9 | 20.9 | 0.00 | 0.00 | 0.00 | 57 | 1015.9 |
| 20260506131235 | 11 | 246 | 12.9 | 19.3 | 0.00 | 0.00 | 0.00 | 57 | 1015.7 |
| 20260506131231 | 11 | 240 | 12.9 | 20.9 | 0.00 | 0.00 | 0.00 | 57 | 1015.9 |
| 20260506130230 | 11 | 238 | 12.9 | 24.1 | 0.00 | 0.00 | 0.00 | 57 | 1015.7 |
| 20260506125731 | 12 | 251 | 14.5 | 24.1 | 0.00 | 0.00 | 0.00 | 56 | 1015.7 |
| 20260506125230 | 12 | 241 | 17.7 | 24.1 | 0.00 | 0.00 | 0.00 | 56 | 1015.6 |
| 20260506124732 | 12 | 259 | 17.7 | 24.1 | 0.00 | 0.00 | 0.00 | 56 | 1015.5 |
| 20260506124234 | 12 | 223 | 17.7 | 27.4 | 0.00 | 0.00 | 0.00 | 57 | 1015.2 |
| 20260506124230 | 11 | 233 | 16.1 | 27.4 | 0.00 | 0.00 | 0.00 | 57 | 1015.3 |
| 20260506123231 | 11 | 222 | 19.3 | 27.4 | 0.00 | 0.00 | 0.00 | 57 | 1015.2 |
| 20260506122730 | 11 | 226 | 16.1 | 27.4 | 0.00 | 0.00 | 0.00 | 57 | 1015.1 |
| 20260506122234 | 12 | 217 | 16.1 | 25.7 | 0.00 | 0.00 | 0.00 | 57 | 1015.2 |
| 20260506122230 | 11 | 216 | 16.1 | 25.7 | 0.00 | 0.00 | 0.00 | 57 | 1015.0 |
| 20260506121230 | 12 | 222 | 17.7 | 29.0 | 0.00 | 0.00 | 0.00 | 57 | 1015.2 |
| 20260506120730 | 12 | 211 | 19.3 | 29.0 | 0.00 | 0.00 | 0.00 | 56 | 1015.1 |
| 20260506120235 | 12 | 229 | 20.9 | 29.0 | 0.00 | 0.00 | 0.00 | 58 | 1014.9 |
| 20260506120230 | 12 | 237 | 19.3 | 29.0 | 0.00 | 0.00 | 0.00 | 57 | 1015.0 |
| 20260506115230 | 12 | 220 | 20.9 | 30.6 | 0.00 | 0.00 | 0.00 | 58 | 1015.0 |
| 20260506114730 | 12 | 233 | 20.9 | 30.6 | 0.00 | 0.00 | 0.00 | 58 | 1015.0 |
| 20260506114230 | 12 | 219 | 22.5 | 30.6 | 0.00 | 0.00 | 0.00 | 58 | 1014.9 |
| 20260506113730 | 12 | 258 | 20.9 | 30.6 | 0.00 | 0.00 | 0.00 | 58 | 1014.9 |
| 20260506113231 | 12 | 226 | 20.9 | 30.6 | 0.00 | 0.00 | 0.00 | 59 | 1014.9 |
| 20260506112729 | 12 | 225 | 20.9 | 30.6 | 0.00 | 0.00 | 0.00 | 58 | 1014.9 |
| 20260506112230 | 12 | 212 | 19.3 | 29.0 | 0.00 | 0.00 | 0.00 | 57 | 1014.8 |
| 20260506111730 | 12 | 212 | 17.7 | 29.0 | 0.00 | 0.00 | 0.00 | 57 | 1014.9 |
| 20260506111230 | 12 | 239 | 19.3 | 27.4 | 0.00 | 0.00 | 0.00 | 57 | 1014.8 |
| 20260506110729 | 12 | 215 | 20.9 | 27.4 | 0.00 | 0.00 | 0.00 | 57 | 1014.8 |
| 20260506110230 | 12 | 228 | 19.3 | 29.0 | 0.00 | 0.00 | 0.00 | 56 | 1014.8 |
| 20260506105731 | 12 | 225 | 19.3 | 29.0 | 0.00 | 0.00 | 0.00 | 56 | 1014.8 |
| 20260506105229 | 12 | 221 | 19.3 | 30.6 | 0.00 | 0.00 | 0.00 | 56 | 1014.8 |
| 20260506104735 | 12 | 212 | 19.3 | 30.6 | 0.00 | 0.00 | 0.00 | 57 | 1014.7 |
| 20260506104731 | 12 | 207 | 19.3 | 30.6 | 0.00 | 0.00 | 0.00 | 56 | 1014.7 |
| 20260506103733 | 12 | 222 | 17.7 | 30.6 | 0.00 | 0.00 | 0.00 | 57 | 1014.6 |
| 20260506103729 | 12 | 225 | 19.3 | 30.6 | 0.00 | 0.00 | 0.00 | 57 | 1014.6 |
| 20260506102729 | 12 | 200 | 16.1 | 29.0 | 0.00 | 0.00 | 0.00 | 57 | 1014.6 |
| 20260506102230 | 12 | 234 | 14.5 | 24.1 | 0.00 | 0.00 | 0.00 | 57 | 1014.7 |
| 20260506101735 | 12 | 217 | 9.7 | 17.7 | 0.00 | 0.00 | 0.00 | 56 | 1014.7 |
| 20260506101729 | 12 | 213 | 11.3 | 19.3 | 0.00 | 0.00 | 0.00 | 57 | 1014.6 |
| 20260506100731 | 12 | 196 | 9.7 | 17.7 | 0.00 | 0.00 | 0.00 | 56 | 1014.7 |
| 20260506100229 | 12 | 232 | 11.3 | 20.9 | 0.00 | 0.00 | 0.00 | 56 | 1014.7 |
| 20260506095729 | 12 | 186 | 11.3 | 20.9 | 0.00 | 0.00 | 0.00 | 56 | 1014.6 |
| 20260506095227 | 12 | 203 | 11.3 | 19.3 | 0.00 | 0.00 | 0.00 | 56 | 1014.6 |
| 20260506094727 | 12 | 204 | 12.9 | 25.7 | 0.00 | 0.00 | 0.00 | 56 | 1014.5 |
| 20260506094227 | 12 | 220 | 12.9 | 25.7 | 0.00 | 0.00 | 0.00 | 56 | 1014.4 |
| 20260506093729 | 12 | 232 | 11.3 | 24.1 | 0.00 | 0.00 | 0.00 | 56 | 1014.4 |
| 20260506093228 | 12 | 227 | 12.9 | 24.1 | 0.00 | 0.00 | 0.00 | 56 | 1014.4 |
| 20260506092729 | 12 | 183 | 14.5 | 24.1 | 0.00 | 0.00 | 0.00 | 56 | 1014.4 |
| 20260506092229 | 12 | 228 | 14.5 | 24.1 | 0.00 | 0.00 | 0.00 | 56 | 1014.4 |
| 20260506091727 | 12 | 213 | 16.1 | 24.1 | 0.00 | 0.00 | 0.00 | 56 | 1014.3 |
| 20260506091229 | 12 | 218 | 14.5 | 22.5 | 0.00 | 0.00 | 0.00 | 57 | 1014.3 |
| 20260506090729 | 12 | 215 | 14.5 | 22.5 | 0.00 | 0.00 | 0.00 | 57 | 1014.4 |
| 20260506090231 | 12 | 203 | 17.7 | 24.1 | 0.00 | 0.00 | 0.00 | 57 | 1014.4 |
| 20260506090227 | 12 | 226 | 16.1 | 22.5 | 0.00 | 0.00 | 0.00 | 57 | 1014.4 |
| 20260506085227 | 12 | 221 | 17.7 | 25.7 | 0.00 | 0.00 | 0.00 | 57 | 1014.4 |
| 20260506084728 | 12 | 194 | 19.3 | 27.4 | 0.00 | 0.00 | 0.00 | 56 | 1014.4 |
| 20260506084228 | 12 | 232 | 19.3 | 27.4 | 0.00 | 0.00 | 0.00 | 56 | 1014.4 |
| 20260506083728 | 12 | 231 | 19.3 | 29.0 | 0.00 | 0.00 | 0.00 | 56 | 1014.4 |
| 20260506083227 | 12 | 227 | 19.3 | 29.0 | 0.00 | 0.00 | 0.00 | 55 | 1014.5 |
| 20260506082731 | 13 | 245 | 17.7 | 29.0 | 0.00 | 0.00 | 0.00 | 55 | 1014.4 |
| 20260506082727 | 13 | 245 | 19.3 | 29.0 | 0.00 | 0.00 | 0.00 | 55 | 1014.4 |
| 20260506081733 | 13 | 225 | 17.7 | 30.6 | 0.00 | 0.00 | 0.00 | 54 | 1014.4 |
| 20260506081729 | 13 | 217 | 16.1 | 30.6 | 0.00 | 0.00 | 0.00 | 54 | 1014.4 |
| 20260506080729 | 13 | 212 | 19.3 | 33.8 | 0.00 | 0.00 | 0.00 | 53 | 1014.5 |
| 20260506080227 | 13 | 213 | 20.9 | 33.8 | 0.00 | 0.00 | 0.00 | 53 | 1014.4 |
| 20260506072725 | 13 | 230 | 20.9 | 33.8 | 0.00 | 0.00 | 0.00 | 52 | 1014.2 |
| 20260506072225 | 13 | 199 | 20.9 | 33.8 | 0.00 | 0.00 | 0.00 | 52 | 1014.1 |
| 20260506071727 | 13 | 223 | 22.5 | 33.8 | 0.00 | 0.00 | 0.00 | 52 | 1013.9 |
| 20260506071722 | 13 | 211 | 22.5 | 33.8 | 0.00 | 0.00 | 0.00 | 52 | 1013.8 |
| 20260506071335 | 13 | 207 | 22.5 | 33.8 | 0.00 | 0.00 | 0.00 | 52 | 1013.7 |
| 20260506070222 | 13 | 217 | 20.9 | 32.2 | 0.00 | 0.00 | 0.00 | 52 | 1013.7 |
| 20260506062222 | 13 | 209 | 22.5 | 32.2 | 0.00 | 0.00 | 0.00 | 54 | 1013.4 |
| 20260506061723 | 13 | 211 | 22.5 | 32.2 | 0.00 | 0.00 | 0.00 | 54 | 1013.2 |
| 20260506061217 | 13 | 227 | 22.5 | 37.0 | 0.00 | 0.00 | 0.00 | 53 | 1013.1 |
| 20260506060718 | 13 | 254 | 22.5 | 37.0 | 0.00 | 0.00 | 0.00 | 54 | 1013.0 |
| 20260506060223 | 13 | 230 | 22.5 | 37.0 | 0.00 | 0.00 | 0.00 | 53 | 1012.9 |
| 20260506060217 | 13 | 225 | 22.5 | 37.0 | 0.00 | 0.00 | 0.00 | 53 | 1012.9 |
| 20260506051215 | 14 | 198 | 22.5 | 33.8 | 0.00 | 0.00 | 0.00 | 51 | 1012.8 |
| 20260506050716 | 14 | 192 | 20.9 | 33.8 | 0.00 | 0.00 | 0.00 | 50 | 1012.7 |
| 20260506050215 | 15 | 203 | 22.5 | 35.4 | 0.00 | 0.00 | 0.00 | 50 | 1012.5 |
| 20260506044713 | 15 | 209 | 20.9 | 35.4 | 0.00 | 0.00 | 0.00 | 49 | 1012.5 |
| 20260506044213 | 15 | 211 | 19.3 | 30.6 | 0.00 | 0.00 | 0.00 | 49 | 1012.3 |
| 20260506043713 | 15 | 232 | 19.3 | 32.2 | 0.00 | 0.00 | 0.00 | 49 | 1012.3 |
| 20260506043213 | 15 | 194 | 20.9 | 32.2 | 0.00 | 0.00 | 0.00 | 49 | 1012.2 |
| 20260506042713 | 15 | 221 | 22.5 | 33.8 | 0.00 | 0.00 | 0.00 | 49 | 1012.1 |
| 20260506042213 | 15 | 216 | 22.5 | 33.8 | 0.00 | 0.00 | 0.00 | 49 | 1012.1 |
| 20260506041713 | 15 | 184 | 20.9 | 35.4 | 0.00 | 0.00 | 0.00 | 48 | 1012.0 |
| 20260506041213 | 15 | 240 | 22.5 | 35.4 | 0.00 | 0.00 | 0.00 | 48 | 1011.9 |
| 20260506040713 | 15 | 221 | 24.1 | 35.4 | 0.00 | 0.00 | 0.00 | 48 | 1011.9 |
| 20260506040212 | 15 | 213 | 22.5 | 35.4 | 0.00 | 0.00 | 0.00 | 48 | 1011.8 |
| 20260506035713 | 15 | 213 | 22.5 | 32.2 | 0.00 | 0.00 | 0.00 | 47 | 1011.7 |
| 20260506035213 | 15 | 207 | 24.1 | 33.8 | 0.00 | 0.00 | 0.00 | 47 | 1011.6 |
| 20260506034713 | 16 | 220 | 22.5 | 33.8 | 0.00 | 0.00 | 0.00 | 46 | 1011.5 |
| 20260506034218 | 16 | 221 | 22.5 | 32.2 | 0.00 | 0.00 | 0.00 | 45 | 1011.5 |
| 20260506034214 | 16 | 200 | 20.9 | 33.8 | 0.00 | 0.00 | 0.00 | 45 | 1011.5 |
| 20260506033213 | 16 | 229 | 20.9 | 33.8 | 0.00 | 0.00 | 0.00 | 44 | 1011.3 |
| 20260506032713 | 16 | 216 | 19.3 | 33.8 | 0.00 | 0.00 | 0.00 | 44 | 1011.3 |
| 20260506032218 | 17 | 212 | 20.9 | 33.8 | 0.00 | 0.00 | 0.00 | 43 | 1011.0 |
| 20260506032212 | 16 | 198 | 20.9 | 33.8 | 0.00 | 0.00 | 0.00 | 44 | 1011.0 |
| 20260506031213 | 17 | 224 | 20.9 | 32.2 | 0.00 | 0.00 | 0.00 | 42 | 1010.9 |
| 20260506030713 | 17 | 207 | 22.5 | 32.2 | 0.00 | 0.00 | 0.00 | 42 | 1010.7 |
| 20260506030213 | 17 | 225 | 20.9 | 32.2 | 0.00 | 0.00 | 0.00 | 41 | 1010.7 |
| 20260506025713 | 17 | 222 | 20.9 | 32.2 | 0.00 | 0.00 | 0.00 | 41 | 1010.6 |
| 20260506025214 | 18 | 220 | 19.3 | 32.2 | 0.00 | 0.00 | 0.00 | 40 | 1010.5 |
| 20260506024712 | 18 | 230 | 20.9 | 32.2 | 0.00 | 0.00 | 0.00 | 39 | 1010.6 |
| 20260506024212 | 18 | 217 | 20.9 | 29.0 | 0.00 | 0.00 | 0.00 | 39 | 1010.4 |
| 20260506023712 | 18 | 223 | 20.9 | 29.0 | 0.00 | 0.00 | 0.00 | 38 | 1010.4 |
| 20260506023211 | 19 | 226 | 20.9 | 29.0 | 0.00 | 0.00 | 0.00 | 36 | 1010.3 |
| 20260506022711 | 19 | 234 | 19.3 | 27.4 | 0.00 | 0.00 | 0.00 | 35 | 1010.3 |
| 20260506022211 | 20 | 231 | 19.3 | 25.7 | 0.00 | 0.00 | 0.00 | 35 | 1010.2 |
| 20260506021711 | 20 | 246 | 19.3 | 25.7 | 0.00 | 0.00 | 0.00 | 34 | 1010.1 |
| 20260506021215 | 20 | 237 | 17.7 | 25.7 | 0.00 | 0.00 | 0.00 | 33 | 1010.1 |
| 20260506021211 | 20 | 238 | 17.7 | 25.7 | 0.00 | 0.00 | 0.00 | 33 | 1010.2 |
| 20260506020826 | 20 | 247 | 19.3 | 27.4 | 0.00 | 0.00 | 0.00 | 33 | 1010.1 |
| 20260506015711 | 21 | 241 | 17.7 | 27.4 | 0.00 | 0.00 | 0.00 | 32 | 1010.0 |
| 20260506015212 | 21 | 230 | 12.9 | 27.4 | 0.00 | 0.00 | 0.00 | 32 | 1009.9 |
| 20260506014710 | 21 | 237 | 16.1 | 30.6 | 0.00 | 0.00 | 0.00 | 31 | 1009.6 |
| 20260506014215 | 21 | 157 | 17.7 | 25.7 | 0.00 | 0.00 | 0.00 | 32 | 1009.5 |
| 20260506014211 | 21 | 126 | 20.9 | 30.6 | 0.00 | 0.00 | 0.00 | 33 | 1009.5 |
| 20260506013212 | 21 | 142 | 12.9 | 24.1 | 0.00 | 0.00 | 0.00 | 32 | 1009.6 |
| 20260506012712 | 21 | 144 | 12.9 | 19.3 | 0.00 | 0.00 | 0.00 | 31 | 1009.5 |
| 20260506012212 | 22 | 138 | 12.9 | 20.9 | 0.00 | 0.00 | 0.00 | 31 | 1009.5 |
| 20260506011711 | 22 | 174 | 12.9 | 20.9 | 0.00 | 0.00 | 0.00 | 30 | 1009.5 |
| 20260506011212 | 22 | 150 | 11.3 | 19.3 | 0.00 | 0.00 | 0.00 | 30 | 1009.5 |
| 20260506010716 | 22 | 184 | 9.7 | 22.5 | 0.00 | 0.00 | 0.00 | 29 | 1009.5 |
| 20260506010711 | 22 | 221 | 8.0 | 17.7 | 0.00 | 0.00 | 0.00 | 31 | 1009.5 |
| 20260506005712 | 22 | 184 | 8.0 | 22.5 | 0.00 | 0.00 | 0.00 | 29 | 1009.5 |
| 20260506005212 | 22 | 205 | 1.6 | 17.7 | 0.00 | 0.00 | 0.00 | 29 | 1009.4 |
| 20260506004710 | 22 | 300 | 4.8 | 17.7 | 0.00 | 0.00 | 0.00 | 29 | 1009.3 |
| 20260506004210 | 22 | 290 | 9.7 | 17.7 | 0.00 | 0.00 | 0.00 | 29 | 1009.3 |
| 20260506003710 | 22 | 290 | 9.7 | 17.7 | 0.00 | 0.00 | 0.00 | 29 | 1009.2 |
| 20260506003210 | 22 | 58 | 4.8 | 22.5 | 0.00 | 0.00 | 0.00 | 30 | 1009.2 |
| 20260506002711 | 22 | 168 | 3.2 | 22.5 | 0.00 | 0.00 | 0.00 | 31 | 1009.2 |
| 20260506002211 | 22 | 144 | 8.0 | 22.5 | 0.00 | 0.00 | 0.00 | 31 | 1009.2 |
| 20260506001712 | 22 | 264 | 11.3 | 22.5 | 0.00 | 0.00 | 0.00 | 31 | 1009.2 |
| 20260506001210 | 22 | 13 | 8.0 | 16.1 | 0.00 | 0.00 | 0.00 | 29 | 1009.1 |
| 20260506000715 | 22 | 314 | 6.4 | 16.1 | 0.00 | 0.00 | 0.00 | 29 | 1009.2 |
| 20260506000711 | 22 | 338 | 8.0 | 16.1 | 0.00 | 0.00 | 0.00 | 29 | 1009.3 |
| 20260505235710 | 22 | 353 | 8.0 | 20.9 | 0.00 | 0.00 | 0.00 | 29 | 1009.3 |
| 20260505235211 | 22 | 358 | 8.0 | 20.9 | 0.00 | 0.00 | 0.00 | 29 | 1009.2 |
| 20260505234710 | 22 | 22 | 3.2 | 16.1 | 0.00 | 0.00 | 0.00 | 30 | 1009.1 |
| 20260505234210 | 22 | 353 | 3.2 | 24.1 | 0.00 | 0.00 | 0.00 | 30 | 1009.2 |